Time;durP1;ratioP1;P1;durP2;ratioP2;P2;SDS_P1;SDS_P2;PMS_P1;PMS_P2;Temp;Humidity;BMP_temperature;BMP_pressure;BME280_temperature;BME280_humidity;BME280_pressure;Samples;Min_cycle;Max_cycle;Signal;HPM_P1;HPM_P2
2023/02/07 00:02:19;;;;;;;6.10;1.83;;;;;;;;;;4815711;29;20070;-92
2023/02/07 00:04:45;;;;;;;5.40;1.45;;;;;;;;;;4812668;29;20023;-93
2023/02/07 00:10:15;;;;;;;6.37;2.00;;;-0.60;99.90;;;;;;4809955;29;20511;-93
2023/02/07 00:12:41;;;;;;;4.30;1.40;;;0.50;99.90;;;;;;4823758;29;20034;-93
2023/02/07 00:15:08;;;;;;;5.77;1.70;;;1.60;99.90;;;;;;4824802;29;20042;-93
2023/02/07 00:17:45;;;;;;;6.10;1.60;;;-0.30;99.90;;;;;;4824439;29;20720;-92
2023/02/07 00:20:16;;;;;;;5.40;1.30;;;-0.10;99.90;;;;;;4824721;29;20041;-93
2023/02/07 00:22:45;;;;;;;4.30;1.57;;;-1.50;99.90;;;;;;4826563;29;20058;-93
2023/02/07 00:25:11;;;;;;;4.90;1.30;;;1.30;99.90;;;;;;4821199;29;20031;-92
2023/02/07 00:27:38;;;;;;;3.77;1.30;;;0.40;99.90;;;;;;4824460;29;20031;-93
2023/02/07 00:30:04;;;;;;;8.60;2.33;;;0.70;99.90;;;;;;4823618;29;20034;-93
2023/02/07 00:32:33;;;;;;;5.10;1.17;;;-1.60;99.90;;;;;;4820909;29;20257;-92
2023/02/07 00:35:00;;;;;;;4.63;1.30;;;-0.90;99.90;;;;;;4824183;29;20510;-93
2023/02/07 00:37:26;;;;;;;6.03;1.67;;;0.00;99.90;;;;;;4823611;29;20035;-92
2023/02/07 00:39:52;;;;;;;5.23;1.70;;;-0.80;99.90;;;;;;4825860;29;20038;-93
2023/02/07 00:42:20;;;;;;;4.27;1.30;;;-0.60;99.90;;;;;;4823482;29;20045;-93
2023/02/07 00:44:48;;;;;;;6.87;1.30;;;0.10;99.90;;;;;;4823603;29;20031;-93
2023/02/07 00:47:17;;;;;;;4.40;1.33;;;0.70;99.90;;;;;;4819240;29;20058;-92
2023/02/07 00:49:43;;;;;;;4.53;1.80;;;-0.10;99.90;;;;;;4824399;29;20404;-92
2023/02/07 00:52:08;;;;;;;4.70;1.60;;;0.10;99.90;;;;;;4823115;29;20038;-92
2023/02/07 00:54:34;;;;;;;4.40;1.77;;;0.20;99.90;;;;;;4823164;29;20096;-93
2023/02/07 00:57:00;;;;;;;4.37;1.73;;;0.30;99.90;;;;;;4824322;29;20075;-92
2023/02/07 00:59:25;;;;;;;4.27;1.83;;;0.90;99.90;;;;;;4831878;29;20040;-92
2023/02/07 01:01:51;;;;;;;3.93;1.67;;;-0.20;99.90;;;;;;4828708;29;20034;-92
2023/02/07 01:04:17;;;;;;;4.70;1.60;;;-0.80;99.90;;;;;;4825996;29;20460;-92
2023/02/07 01:06:42;;;;;;;5.27;1.30;;;-0.40;99.90;;;;;;4820535;29;20095;-93
2023/02/07 01:09:09;;;;;;;6.77;1.87;;;1.00;99.90;;;;;;4808542;29;20035;-93
2023/02/07 01:11:35;;;;;;;5.93;1.63;;;1.20;99.90;;;;;;4819193;29;20022;-93
2023/02/07 01:14:03;;;;;;;4.93;1.73;;;1.30;99.90;;;;;;4825257;29;20576;-93
2023/02/07 01:16:32;;;;;;;3.67;1.27;;;-0.90;99.90;;;;;;4820796;29;20039;-91
2023/02/07 01:19:01;;;;;;;7.90;1.97;;;0.70;99.90;;;;;;4824264;29;20067;-92
2023/02/07 01:21:27;;;;;;;6.40;2.00;;;-0.60;99.90;;;;;;4821993;29;20034;-93
2023/02/07 01:23:55;;;;;;;5.47;1.63;;;1.40;99.90;;;;;;4823700;29;20027;-92
2023/02/07 01:26:25;;;;;;;5.80;2.23;;;1.30;99.90;;;;;;4810771;29;20496;-92
2023/02/07 01:28:53;;;;;;;4.40;1.23;;;0.00;99.90;;;;;;4805718;29;20034;-92
2023/02/07 01:31:20;;;;;;;4.23;1.73;;;0.40;99.90;;;;;;4822006;29;20026;-93
2023/02/07 01:33:53;;;;;;;5.43;1.90;;;-0.80;99.90;;;;;;4823253;29;20038;-93
2023/02/07 01:36:19;;;;;;;5.67;2.00;;;-2.00;99.90;;;;;;4822808;29;20126;-93
2023/02/07 01:38:45;;;;;;;8.23;2.10;;;-1.10;99.90;;;;;;4829827;29;20063;-93
2023/02/07 01:41:14;;;;;;;8.00;2.07;;;-1.50;99.90;;;;;;4823634;29;20030;-93
2023/02/07 01:43:55;;;;;;;7.40;1.87;;;-1.40;99.90;;;;;;4821573;29;20063;-92
2023/02/07 01:46:24;;;;;;;7.30;1.80;;;0.00;99.90;;;;;;4821635;29;20125;-93
2023/02/07 01:48:53;;;;;;;5.47;1.63;;;0.40;99.90;;;;;;4824151;29;20026;-93
2023/02/07 01:51:19;;;;;;;5.77;2.40;;;;;;;;;;4824847;29;20516;-93
2023/02/07 01:53:46;;;;;;;5.47;1.70;;;-1.20;99.90;;;;;;4824163;29;20050;-93
2023/02/07 01:56:16;;;;;;;6.60;2.17;;;-1.30;99.90;;;;;;4822807;29;20456;-92
2023/02/07 01:58:45;;;;;;;7.80;1.90;;;-1.30;99.90;;;;;;4824408;29;20034;-92
2023/02/07 02:01:19;;;;;;;7.20;2.93;;;-1.40;99.90;;;;;;4815222;29;20500;-93
2023/02/07 02:03:52;;;;;;;5.90;2.33;;;-1.30;99.90;;;;;;4823796;29;20030;-93
2023/02/07 02:06:19;;;;;;;8.10;2.40;;;-1.60;99.90;;;;;;4824380;29;20103;-92
2023/02/07 02:08:51;;;;;;;7.80;2.10;;;-1.50;99.90;;;;;;4826966;29;20026;-92
2023/02/07 02:11:26;;;;;;;7.47;2.13;;;-1.50;99.90;;;;;;4828826;29;20035;-91
2023/02/07 02:14:15;;;;;;;6.37;2.13;;;-1.50;99.90;;;;;;4828191;29;20030;-92
2023/02/07 02:17:12;;;;;;;7.67;2.93;;;-1.50;99.90;;;;;;4829017;29;20045;-93
2023/02/07 02:20:08;;;;;;;5.97;2.77;;;-1.50;99.90;;;;;;4829910;29;20085;-92
2023/02/07 02:23:16;;;;;;;8.60;2.27;;;-1.50;99.90;;;;;;4830345;29;20030;-93
2023/02/07 02:26:02;;;;;;;10.40;2.57;;;-1.00;99.90;;;;;;4827477;29;20045;-92
2023/02/07 02:28:33;;;;;;;9.43;2.53;;;-0.60;99.90;;;;;;4829469;29;20038;-93
2023/02/07 02:34:18;;;;;;;4.33;2.53;;;-2.20;99.90;;;;;;4891253;23;20311;-93
2023/02/07 02:37:09;;;;;;;9.13;2.40;;;-0.20;99.90;;;;;;4848268;29;20026;-92
2023/02/07 02:40:14;;;;;;;11.57;2.90;;;-1.70;99.90;;;;;;4849163;29;20064;-93
2023/02/07 02:43:29;;;;;;;7.67;2.80;;;-1.50;99.90;;;;;;4835673;29;20091;-93
2023/02/07 02:46:12;;;;;;;7.40;3.00;;;-1.80;99.90;;;;;;4824578;29;20044;-92
2023/02/07 02:48:44;;;;;;;8.23;2.63;;;-1.90;99.90;;;;;;4826097;29;20061;-93
2023/02/07 02:51:12;;;;;;;;;;;-2.20;99.90;;;;;;4826671;29;20066;-93
2023/02/07 02:53:38;;;;;;;7.27;2.10;;;-1.90;99.90;;;;;;4827791;29;19909;-93
2023/02/07 02:56:53;;;;;;;7.40;2.53;;;-1.80;99.90;;;;;;4826053;29;20042;-93
2023/02/07 02:59:36;;;;;;;7.90;2.63;;;-2.00;99.90;;;;;;4826812;29;20035;-93
2023/02/07 03:02:18;;;;;;;8.00;2.47;;;-2.00;99.90;;;;;;4824679;29;20496;-93
2023/02/07 03:04:50;;;;;;;6.20;2.92;;;-1.50;99.90;;;;;;4826135;29;20115;-92
2023/02/07 03:07:25;;;;;;;6.78;2.95;;;-2.00;99.90;;;;;;4826259;29;20110;-93
2023/02/07 03:10:11;;;;;;;7.13;2.87;;;-2.00;99.90;;;;;;4826895;29;20510;-93
2023/02/07 03:13:08;;;;;;;9.97;2.40;;;-1.00;99.90;;;;;;4825309;29;20125;-92
2023/02/07 03:15:51;;;;;;;4.93;2.10;;;-2.00;99.90;;;;;;4825236;29;20037;-93
2023/02/07 03:18:55;;;;;;;11.90;3.47;;;-1.80;99.90;;;;;;4844508;29;20046;-94
2023/02/07 03:21:49;;;;;;;7.73;2.13;;;-2.00;99.90;;;;;;4835797;29;20031;-93
2023/02/07 03:24:42;;;;;;;6.90;2.47;;;-2.10;99.90;;;;;;4819659;29;20038;-93
2023/02/07 03:27:18;;;;;;;9.53;3.40;;;-2.10;99.90;;;;;;4820702;29;20037;-93
2023/02/07 03:29:56;;;;;;;17.60;3.60;;;-2.00;99.90;;;;;;4826803;29;20038;-92
2023/02/07 03:32:24;;;;;;;9.50;3.00;;;-2.10;99.90;;;;;;4827560;29;20042;-92
2023/02/07 03:35:01;;;;;;;9.53;3.53;;;-2.00;99.90;;;;;;4829319;29;20061;-92
2023/02/07 03:37:42;;;;;;;7.83;3.33;;;-2.20;99.90;;;;;;4819620;29;20107;-92
2023/02/07 03:40:11;;;;;;;6.27;3.03;;;-2.10;99.90;;;;;;4822274;29;20554;-93
2023/02/07 03:46:19;;;;;;;7.50;3.20;;;-2.10;99.90;;;;;;4833801;29;20050;-88
2023/02/07 03:49:16;;;;;;;;;;;;;;;;;;;;;
2023/02/07 03:55:29;;;;;;;;;;;;;;;;;;;;;
2023/02/07 03:58:08;;;;;;;6.87;3.03;;;-1.80;99.90;;;;;;4821581;29;20094;-87
2023/02/07 04:00:47;;;;;;;6.57;3.07;;;-2.20;99.90;;;;;;4826663;29;20764;-88
2023/02/07 04:06:53;;;;;;;;;;;;;;;;;;;;;
2023/02/07 04:09:58;;;;;;;8.13;3.10;;;-1.80;99.90;;;;;;4826709;29;20082;-88
2023/02/07 04:13:16;;;;;;;8.47;3.33;;;-2.20;99.90;;;;;;4820830;29;20072;-87
2023/02/07 04:16:43;;;;;;;5.67;2.27;;;-2.20;99.90;;;;;;4817518;29;20061;-87
2023/02/07 04:20:18;;;;;;;;;;;;;;;;;;;;;
2023/02/07 04:26:32;;;;;;;;;;;;;;;;;;;;;
2023/02/07 04:29:55;;;;;;;;;;;;;;;;;;;;;
2023/02/07 04:36:21;;;;;;;5.70;2.40;;;-2.30;99.90;;;;;;4804581;29;20066;-87
2023/02/07 04:42:53;;;;;;;8.40;2.90;;;-2.50;99.90;;;;;;4834177;29;20038;-88
2023/02/07 04:45:52;;;;;;;;;;;;;;;;;;;;;
2023/02/07 04:52:39;;;;;;;6.00;2.20;;;-2.40;99.90;;;;;;4770099;29;20516;-88
2023/02/07 04:55:05;;;;;;;8.90;2.30;;;-2.40;99.90;;;;;;4794308;29;20148;-87
2023/02/07 04:57:58;;;;;;;6.90;2.33;;;-2.40;99.90;;;;;;4817758;29;20035;-89
2023/02/07 05:00:42;;;;;;;5.27;2.43;;;-2.40;99.90;;;;;;4819826;29;20046;-87
2023/02/07 05:03:22;;;;;;;7.30;2.67;;;-2.40;99.90;;;;;;4840326;23;20055;-87
2023/02/07 05:05:56;;;;;;;4.63;2.43;;;-2.40;99.90;;;;;;4809455;29;20115;-87
2023/02/07 05:08:22;;;;;;;6.33;2.57;;;-2.30;99.90;;;;;;4819519;29;20064;-87
2023/02/07 05:10:57;;;;;;;5.73;2.30;;;;;;;;;;4820100;29;20734;-87
2023/02/07 05:13:34;;;;;;;7.07;2.87;;;-2.60;99.90;;;;;;4821441;29;20029;-87
2023/02/07 05:16:10;;;;;;;6.77;2.27;;;-2.00;99.90;;;;;;4820457;29;20165;-87
2023/02/07 05:18:49;;;;;;;;;;;;;;;;;;;;;
2023/02/07 05:21:19;;;;;;;8.37;2.30;;;-2.60;99.90;;;;;;4817278;29;20022;-87
2023/02/07 05:24:09;;;;;;;7.30;2.10;;;-2.40;99.90;;;;;;4828071;29;20030;-87
2023/02/07 05:27:00;;;;;;;9.40;2.30;;;-2.60;99.90;;;;;;4815814;29;20083;-87
2023/02/07 05:29:40;;;;;;;5.03;2.37;;;-2.60;99.90;;;;;;4820402;29;20058;-88
2023/02/07 05:35:17;;;;;;;5.70;1.90;;;-2.60;99.90;;;;;;4817147;29;20046;-88
2023/02/07 05:37:45;;;;;;;6.27;2.67;;;-2.60;99.90;;;;;;4821223;29;20028;-87
2023/02/07 05:40:23;;;;;;;7.47;2.63;;;-2.50;99.90;;;;;;4823049;29;20035;-88
2023/02/07 05:42:53;;;;;;;7.70;2.80;;;-2.70;99.90;;;;;;4826519;29;20255;-87
2023/02/07 05:45:26;;;;;;;4.80;2.07;;;-2.60;99.90;;;;;;4825615;29;20035;-87
2023/02/07 05:48:15;;;;;;;5.67;2.40;;;-2.50;99.90;;;;;;4826427;29;20026;-86
2023/02/07 05:51:04;;;;;;;6.30;2.13;;;-2.70;99.90;;;;;;4827160;29;20503;-88
2023/02/07 05:53:33;;;;;;;6.57;2.00;;;-3.00;99.90;;;;;;4829013;29;20056;-88
2023/02/07 05:56:10;;;;;;;5.57;2.10;;;-2.50;99.90;;;;;;4823575;29;20526;-87
2023/02/07 05:58:41;;;;;;;8.00;2.17;;;-2.70;99.90;;;;;;4824283;29;20042;-87
2023/02/07 06:01:16;;;;;;;5.03;1.85;;;-2.20;99.90;;;;;;4815225;29;20137;-87
2023/02/07 06:03:51;;;;;;;4.33;2.03;;;-2.20;99.90;;;;;;4815838;29;20404;-87
2023/02/07 06:06:29;;;;;;;3.93;1.70;;;-2.80;99.90;;;;;;4819060;29;20035;-88
2023/02/07 06:09:00;;;;;;;7.07;2.37;;;-2.70;99.90;;;;;;4818994;29;20066;-87
2023/02/07 06:11:29;;;;;;;5.83;2.07;;;-2.70;99.90;;;;;;4824387;29;20094;-87
2023/02/07 06:13:57;;;;;;;6.83;2.30;;;-2.40;99.90;;;;;;4816495;29;20068;-86
2023/02/07 06:16:23;;;;;;;6.73;2.57;;;-2.80;99.90;;;;;;4814590;29;20039;-87
2023/02/07 06:18:49;;;;;;;9.50;2.53;;;-2.80;99.90;;;;;;4814408;29;20384;-87
2023/02/07 06:21:15;;;;;;;9.03;3.20;;;-2.90;99.90;;;;;;4818773;29;20540;-86
2023/02/07 06:23:45;;;;;;;8.33;1.80;;;-4.00;99.90;;;;;;4820925;29;20030;-87
2023/02/07 06:26:12;;;;;;;4.90;2.03;;;-2.90;99.90;;;;;;4818724;29;20027;-87
2023/02/07 06:28:47;;;;;;;6.77;2.10;;;-2.90;99.90;;;;;;4822689;29;20030;-87
2023/02/07 06:31:13;;;;;;;4.73;1.90;;;-3.00;99.90;;;;;;4818826;29;20464;-87
2023/02/07 06:33:38;;;;;;;5.00;1.70;;;-2.90;99.90;;;;;;4826883;29;20561;-88
2023/02/07 06:36:07;;;;;;;8.40;2.50;;;-3.30;99.90;;;;;;4822566;29;20038;-88
2023/02/07 06:38:33;;;;;;;5.40;2.30;;;-3.00;99.90;;;;;;4822386;29;20042;-88
2023/02/07 06:41:09;;;;;;;;;;;;;;;;;;;;;
2023/02/07 06:43:38;;;;;;;6.93;2.60;;;-3.00;99.90;;;;;;4824372;29;20041;-87
2023/02/07 06:46:04;;;;;;;5.67;1.90;;;-1.70;99.90;;;;;;4823373;29;20031;-87
2023/02/07 06:48:30;;;;;;;7.10;2.33;;;-3.40;99.90;;;;;;4823015;29;20040;-88
2023/02/07 06:50:56;;;;;;;5.17;1.93;;;-3.10;99.90;;;;;;4820769;29;20038;-88
2023/02/07 06:53:32;;;;;;;;;;;;;;;;;;;;;
2023/02/07 06:55:58;;;;;;;6.17;2.33;;;-3.50;99.90;;;;;;4831251;29;20034;-88
2023/02/07 06:58:23;;;;;;;5.43;2.17;;;-2.30;99.90;;;;;;4822480;29;20153;-87
2023/02/07 07:00:49;;;;;;;7.63;2.77;;;-3.10;99.90;;;;;;4820442;29;20042;-87
2023/02/07 07:03:16;;;;;;;6.73;2.40;;;-3.10;99.90;;;;;;4827267;29;20355;-87
2023/02/07 07:05:43;;;;;;;5.83;1.77;;;-2.80;99.90;;;;;;4822366;29;20030;-87
2023/02/07 07:08:10;;;;;;;12.30;2.67;;;-2.70;99.90;;;;;;4817827;29;20702;-87
2023/02/07 07:10:35;;;;;;;7.57;2.77;;;-2.80;99.90;;;;;;4837645;29;20022;-87
2023/02/07 07:13:01;;;;;;;4.80;2.23;;;-2.80;99.90;;;;;;4820968;29;20037;-87
2023/02/07 07:15:30;;;;;;;9.40;2.60;;;-2.80;99.90;;;;;;4817651;29;20026;-88
2023/02/07 07:17:56;;;;;;;6.93;2.17;;;-2.80;99.90;;;;;;4821873;29;20034;-87
2023/02/07 07:20:22;;;;;;;8.67;2.50;;;-2.80;99.90;;;;;;4822586;29;20034;-87
2023/02/07 07:22:50;;;;;;;7.10;2.43;;;-2.70;99.90;;;;;;4819945;29;20434;-87
2023/02/07 07:25:19;;;;;;;7.17;2.13;;;-2.00;99.90;;;;;;4822010;29;20031;-88
2023/02/07 07:27:45;;;;;;;5.90;2.10;;;-3.10;99.90;;;;;;4820426;29;20030;-88
2023/02/07 07:30:11;;;;;;;8.63;2.17;;;-2.90;99.90;;;;;;4818647;29;20050;-88
2023/02/07 07:32:37;;;;;;;8.77;2.50;;;-2.60;99.90;;;;;;4809473;29;20407;-87
2023/02/07 07:35:04;;;;;;;6.77;2.47;;;-0.60;99.90;;;;;;4821735;29;20172;-87
2023/02/07 07:37:30;;;;;;;7.83;2.77;;;-2.40;99.90;;;;;;4823414;29;20054;-87
2023/02/07 07:39:55;;;;;;;5.03;2.47;;;-2.50;99.90;;;;;;4819909;29;20400;-87
2023/02/07 07:42:21;;;;;;;8.17;2.63;;;-2.40;99.90;;;;;;4821933;29;20057;-87
2023/02/07 07:44:46;;;;;;;4.70;1.80;;;-2.30;99.90;;;;;;4822980;29;20114;-87
2023/02/07 07:47:12;;;;;;;5.30;1.83;;;-2.30;99.90;;;;;;4821182;29;20033;-87
2023/02/07 07:49:38;;;;;;;5.83;1.90;;;-2.20;99.90;;;;;;4822800;29;20492;-87
2023/02/07 07:52:05;;;;;;;6.23;2.40;;;-2.20;99.90;;;;;;4816397;29;20041;-87
2023/02/07 07:54:30;;;;;;;8.80;3.20;;;-2.20;99.90;;;;;;4821865;29;20706;-87
2023/02/07 07:56:56;;;;;;;5.93;2.30;;;-2.20;99.90;;;;;;4824014;29;20075;-87
2023/02/07 07:59:21;;;;;;;7.67;2.77;;;-2.10;99.90;;;;;;4821832;29;20030;-86
2023/02/07 08:01:47;;;;;;;5.90;2.00;;;-2.00;99.90;;;;;;4818987;29;20034;-87
2023/02/07 08:04:13;;;;;;;8.33;2.20;;;-2.00;99.90;;;;;;4825389;29;20436;-87
2023/02/07 08:06:41;;;;;;;9.73;2.13;;;-1.80;99.90;;;;;;4823053;29;20094;-87
2023/02/07 08:09:07;;;;;;;8.53;2.50;;;-1.90;99.90;;;;;;4821075;29;20042;-87
2023/02/07 08:11:33;;;;;;;7.93;2.60;;;-1.70;99.90;;;;;;4815090;29;20034;-88
2023/02/07 08:13:58;;;;;;;7.67;2.67;;;-1.60;99.90;;;;;;4817943;29;20065;-88
2023/02/07 08:16:24;;;;;;;7.37;3.13;;;-1.60;99.90;;;;;;4819103;29;20064;-88
2023/02/07 08:18:50;;;;;;;7.63;2.70;;;-1.50;99.90;;;;;;4818394;29;20038;-88
2023/02/07 08:21:18;;;;;;;6.70;2.33;;;-1.50;99.90;;;;;;4819874;29;20034;-87
2023/02/07 08:23:47;;;;;;;8.53;2.33;;;-1.30;99.90;;;;;;4825831;29;20089;-87
2023/02/07 08:26:15;;;;;;;6.53;2.30;;;-1.40;99.90;;;;;;4821363;29;20065;-87
2023/02/07 08:28:41;;;;;;;7.57;2.50;;;-1.30;99.90;;;;;;4819902;29;20484;-87
2023/02/07 08:31:07;;;;;;;8.67;3.33;;;-1.10;99.90;;;;;;4819610;29;20055;-87
2023/02/07 08:33:32;;;;;;;8.50;3.13;;;-1.10;99.90;;;;;;4822553;29;20109;-87
2023/02/07 08:36:00;;;;;;;6.37;2.77;;;-1.20;99.90;;;;;;4821081;29;20026;-88
2023/02/07 08:38:37;;;;;;;6.57;2.80;;;0.30;99.90;;;;;;4826886;29;20043;-87
2023/02/07 08:41:04;;;;;;;8.13;3.07;;;-1.10;99.90;;;;;;4842192;29;20148;-86
2023/02/07 08:43:31;;;;;;;7.50;2.67;;;-1.10;99.90;;;;;;4845985;29;20042;-87
2023/02/07 08:45:57;;;;;;;7.20;3.00;;;-1.00;99.90;;;;;;4824084;29;20030;-88
2023/02/07 08:48:24;;;;;;;6.07;2.53;;;-0.90;99.90;;;;;;4822515;29;20022;-86
2023/02/07 08:50:51;;;;;;;5.87;2.67;;;-0.90;99.90;;;;;;4823658;29;20041;-87
2023/02/07 08:53:24;;;;;;;9.13;1.83;;;-0.80;99.90;;;;;;4825095;29;20096;-87
2023/02/07 08:55:55;;;;;;;9.47;2.57;;;-0.90;99.90;;;;;;4825105;29;20034;-87
2023/02/07 08:58:29;;;;;;;5.68;2.20;;;-1.00;99.90;;;;;;4821540;29;20129;-87
2023/02/07 09:00:55;;;;;;;8.47;2.10;;;-0.40;99.90;;;;;;4820921;29;20034;-87
2023/02/07 09:03:20;;;;;;;5.10;2.20;;;-0.90;99.90;;;;;;4818244;29;20054;-87
2023/02/07 09:05:48;;;;;;;8.73;3.10;;;-1.00;99.90;;;;;;4820762;29;20018;-87
2023/02/07 09:08:14;;;;;;;9.53;2.60;;;-1.10;99.90;;;;;;4815407;29;20027;-87
2023/02/07 09:10:49;;;;;;;4.70;1.90;;;-1.80;99.90;;;;;;4817600;29;20034;-87
2023/02/07 09:13:15;;;;;;;5.53;2.10;;;0.30;99.90;;;;;;4823515;29;20086;-87
2023/02/07 09:15:53;;;;;;;5.63;2.03;;;-0.90;99.90;;;;;;4818956;29;20030;-87
2023/02/07 09:18:29;;;;;;;6.67;2.50;;;0.50;99.90;;;;;;4818396;29;20034;-87
2023/02/07 09:20:55;;;;;;;6.17;2.43;;;-0.70;99.90;;;;;;4819155;29;21497;-87
2023/02/07 09:23:24;;;;;;;6.60;2.43;;;-0.70;99.90;;;;;;4821488;29;20075;-87
2023/02/07 09:26:02;;;;;;;8.20;2.40;;;0.60;99.90;;;;;;4820551;29;20557;-87
2023/02/07 09:31:37;;;;;;;7.63;2.70;;;0.70;99.90;;;;;;4802278;29;20037;-86
2023/02/07 09:34:11;;;;;;;7.13;2.57;;;-0.20;99.90;;;;;;4825563;29;20045;-87
2023/02/07 09:36:45;;;;;;;7.10;2.60;;;-0.10;99.90;;;;;;4817731;29;20416;-87
2023/02/07 09:39:11;;;;;;;5.63;2.33;;;0.80;99.90;;;;;;4824223;29;20037;-87
2023/02/07 09:42:17;;;;;;;8.93;2.30;;;0.00;99.90;;;;;;4823468;29;20030;-88
2023/02/07 09:44:59;;;;;;;7.83;2.63;;;-0.50;99.90;;;;;;4819994;29;20030;-87
2023/02/07 09:47:26;;;;;;;4.85;2.17;;;1.20;99.90;;;;;;4820438;29;20373;-87
2023/02/07 09:50:26;;;;;;;7.10;2.57;;;0.30;99.90;;;;;;4822230;29;20083;-87
2023/02/07 09:53:10;;;;;;;9.00;2.40;;;0.40;99.90;;;;;;4821655;29;20038;-88
2023/02/07 09:55:49;;;;;;;7.60;2.80;;;-0.10;99.90;;;;;;4823878;29;20026;-87
2023/02/07 09:58:43;;;;;;;4.73;2.40;;;0.60;99.90;;;;;;4821345;29;20094;-87
2023/02/07 10:01:16;;;;;;;6.00;2.17;;;0.70;99.90;;;;;;4822580;29;20042;-88
2023/02/07 10:04:05;;;;;;;6.23;2.27;;;0.80;99.90;;;;;;4822570;29;20034;-87
2023/02/07 10:06:57;;;;;;;;;;;;;;;;;;;;;
2023/02/07 10:09:37;;;;;;;8.07;3.20;;;0.80;99.90;;;;;;4821964;29;20038;-87
2023/02/07 10:12:28;;;;;;;6.80;2.60;;;0.90;99.90;;;;;;4823562;29;20087;-88
2023/02/07 10:15:05;;;;;;;6.50;2.57;;;1.10;99.90;;;;;;4822780;29;20026;-87
2023/02/07 10:18:05;;;;;;;6.80;2.70;;;2.20;99.90;;;;;;4821769;29;20019;-87
2023/02/07 10:20:38;;;;;;;5.83;2.47;;;1.20;99.90;;;;;;4822074;29;20091;-87
2023/02/07 10:23:16;;;;;;;6.10;2.17;;;1.40;99.90;;;;;;4820262;29;20033;-87
2023/02/07 10:26:03;;;;;;;4.57;1.90;;;1.50;99.90;;;;;;4822429;29;20019;-87
2023/02/07 10:29:06;;;;;;;5.93;2.60;;;1.30;99.90;;;;;;4820896;29;20034;-87
2023/02/07 10:31:46;;;;;;;3.63;1.67;;;1.50;99.90;;;;;;4819726;29;20034;-88
2023/02/07 10:34:13;;;;;;;8.50;2.40;;;1.90;99.90;;;;;;4826488;29;20023;-87
2023/02/07 10:36:45;;;;;;;6.07;2.27;;;1.60;99.90;;;;;;4822311;29;20424;-87
2023/02/07 10:39:14;;;;;;;;;;;1.60;99.90;;;;;;4819338;29;20034;-88
2023/02/07 10:41:41;;;;;;;4.40;1.90;;;1.60;99.90;;;;;;4822618;29;19919;-87
2023/02/07 10:44:18;;;;;;;4.83;2.03;;;1.60;99.90;;;;;;4824429;29;20026;-87
2023/02/07 10:46:49;;;;;;;6.07;2.40;;;1.70;99.90;;;;;;4823293;29;20065;-87
2023/02/07 10:49:25;;;;;;;5.07;2.13;;;1.80;99.90;;;;;;4822849;29;20083;-88
2023/02/07 10:51:53;;;;;;;6.17;2.50;;;2.40;99.90;;;;;;4822123;29;20030;-88
2023/02/07 10:54:23;;;;;;;6.00;2.43;;;1.90;99.90;;;;;;4824849;29;20097;-88
2023/02/07 10:56:54;;;;;;;5.53;1.83;;;1.90;99.90;;;;;;4821175;29;20034;-86
2023/02/07 10:59:44;;;;;;;4.80;1.80;;;1.90;99.90;;;;;;4821365;29;20088;-88
2023/02/07 11:02:36;;;;;;;6.50;2.10;;;1.90;99.90;;;;;;4820504;29;20027;-88
2023/02/07 11:05:34;;;;;;;7.30;2.10;;;1.90;99.90;;;;;;4824284;29;20030;-87
2023/02/07 11:08:16;;;;;;;4.57;2.10;;;1.80;99.90;;;;;;4819524;29;20319;-88
2023/02/07 11:10:46;;;;;;;6.50;1.70;;;1.70;99.90;;;;;;4823049;29;20093;-88
2023/02/07 11:13:20;;;;;;;6.43;2.50;;;1.90;99.90;;;;;;4823493;29;20035;-88
2023/02/07 11:15:55;;;;;;;5.60;2.03;;;1.80;99.90;;;;;;4817151;29;20030;-88
2023/02/07 11:18:36;;;;;;;3.97;1.80;;;1.90;99.90;;;;;;4821933;29;20042;-89
2023/02/07 11:21:03;;;;;;;6.50;1.90;;;1.90;99.90;;;;;;4818882;29;20029;-88
2023/02/07 11:23:29;;;;;;;3.47;1.60;;;1.90;99.90;;;;;;4822970;29;20030;-87
2023/02/07 11:25:55;;;;;;;4.53;1.40;;;2.00;99.90;;;;;;4824712;29;20018;-89
2023/02/07 11:28:29;;;;;;;10.67;1.90;;;2.10;99.90;;;;;;4822373;29;20043;-89
2023/02/07 11:31:06;;;;;;;4.13;1.60;;;2.10;99.90;;;;;;4821629;29;20025;-88
2023/02/07 11:33:35;;;;;;;5.20;1.73;;;2.10;99.90;;;;;;4824806;29;20027;-88
2023/02/07 11:36:03;;;;;;;3.37;1.43;;;2.20;99.90;;;;;;4821797;29;20030;-88
2023/02/07 11:38:29;;;;;;;4.20;1.30;;;2.30;99.90;;;;;;4822841;29;20512;-88
2023/02/07 11:41:00;;;;;;;8.77;1.70;;;2.30;99.90;;;;;;4821432;29;20033;-88
2023/02/07 11:43:29;;;;;;;5.47;2.10;;;2.40;99.90;;;;;;4820387;29;20031;-88
2023/02/07 11:46:00;;;;;;;5.93;1.93;;;3.00;99.90;;;;;;4822916;29;20109;-88
2023/02/07 11:48:30;;;;;;;6.17;2.00;;;2.50;99.90;;;;;;4821951;29;20034;-88
2023/02/07 11:51:00;;;;;;;7.00;2.60;;;2.30;99.90;;;;;;4820234;29;20050;-88
2023/02/07 11:53:31;;;;;;;6.00;2.23;;;2.40;99.90;;;;;;4823323;29;20106;-88
2023/02/07 11:55:57;;;;;;;6.50;2.50;;;2.30;99.90;;;;;;4826267;29;20026;-89
2023/02/07 11:58:40;;;;;;;7.00;2.33;;;2.40;99.90;;;;;;4820893;29;20127;-88
2023/02/07 12:01:07;;;;;;;4.23;1.90;;;2.40;99.90;;;;;;4823386;29;20022;-88
2023/02/07 12:03:51;;;;;;;6.17;2.27;;;2.40;99.90;;;;;;4822830;29;20407;-88
2023/02/07 12:06:20;;;;;;;5.70;2.40;;;2.40;99.90;;;;;;4822328;29;20496;-89
2023/02/07 12:08:46;;;;;;;8.13;2.80;;;2.40;99.90;;;;;;4820500;29;20090;-88
2023/02/07 12:11:19;;;;;;;6.93;2.40;;;2.50;99.90;;;;;;4821905;29;20069;-88
2023/02/07 12:13:58;;;;;;;6.70;2.80;;;2.50;99.90;;;;;;4825988;29;20033;-88
2023/02/07 12:16:28;;;;;;;7.90;2.67;;;2.50;99.90;;;;;;4820068;29;20027;-88
2023/02/07 12:19:14;;;;;;;5.73;2.60;;;2.60;99.90;;;;;;4822937;29;20022;-86
2023/02/07 12:21:45;;;;;;;6.00;2.83;;;2.70;99.90;;;;;;4820127;29;20508;-88
2023/02/07 12:24:20;;;;;;;6.13;2.77;;;2.80;99.90;;;;;;4824770;29;20022;-88
2023/02/07 12:26:58;;;;;;;5.03;2.00;;;2.80;99.90;;;;;;4819940;29;20338;-88
2023/02/07 12:29:45;;;;;;;5.50;2.60;;;2.70;99.90;;;;;;4820688;29;20052;-88
2023/02/07 12:32:32;;;;;;;8.37;2.70;;;2.70;99.90;;;;;;4820234;29;20022;-88
2023/02/07 12:35:28;;;;;;;5.50;2.10;;;2.80;99.90;;;;;;4825076;29;20026;-87
2023/02/07 12:38:27;;;;;;;5.33;2.17;;;2.80;99.90;;;;;;4820907;29;20034;-88
2023/02/07 12:41:13;;;;;;;7.70;2.57;;;2.90;99.90;;;;;;4806649;29;20448;-88
2023/02/07 12:44:08;;;;;;;4.77;1.80;;;2.90;99.90;;;;;;4824435;29;21445;-88
2023/02/07 12:47:00;;;;;;;7.97;2.20;;;2.90;99.90;;;;;;4814964;29;20130;-88
2023/02/07 12:49:56;;;;;;;4.90;2.60;;;2.90;99.90;;;;;;4822705;29;20035;-88
2023/02/07 12:52:39;;;;;;;6.10;2.17;;;3.00;99.90;;;;;;4821643;29;20034;-89
2023/02/07 12:55:50;;;;;;;5.78;2.20;;;3.00;99.90;;;;;;4836437;29;20037;-88
2023/02/07 12:58:44;;;;;;;6.70;1.90;;;3.20;99.90;;;;;;4825571;29;20073;-89
2023/02/07 13:01:31;;;;;;;5.97;1.93;;;3.00;99.90;;;;;;4819351;29;20039;-88
2023/02/07 13:04:15;;;;;;;4.40;1.97;;;3.00;99.90;;;;;;4816484;29;20041;-88
2023/02/07 13:07:03;;;;;;;7.17;2.23;;;3.10;99.90;;;;;;4820903;29;20373;-88
2023/02/07 13:09:59;;;;;;;5.93;1.90;;;3.10;99.90;;;;;;4821555;29;20030;-89
2023/02/07 13:12:50;;;;;;;7.63;2.20;;;3.20;99.90;;;;;;4816516;29;20036;-89
2023/02/07 13:15:33;;;;;;;5.93;2.00;;;3.00;99.90;;;;;;4827083;29;20082;-89
2023/02/07 13:18:41;;;;;;;6.67;2.07;;;4.20;99.90;;;;;;4828819;29;20030;-90
2023/02/07 13:22:05;;;;;;;8.27;2.40;;;2.50;99.90;;;;;;4813946;29;20055;-89
2023/02/07 13:24:34;;;;;;;6.47;2.67;;;3.70;99.90;;;;;;4825734;29;20503;-89
2023/02/07 13:27:07;;;;;;;6.50;1.80;;;3.80;99.90;;;;;;4805261;29;20098;-88
2023/02/07 13:29:39;;;;;;;6.37;2.23;;;3.90;99.90;;;;;;4820574;29;20032;-89
2023/02/07 13:32:18;;;;;;;6.13;2.20;;;3.90;99.90;;;;;;4817085;29;20031;-89
2023/02/07 13:34:57;;;;;;;4.60;1.60;;;4.00;99.90;;;;;;4806551;29;20039;-88
2023/02/07 13:37:51;;;;;;;5.23;1.97;;;4.10;99.90;;;;;;4825426;29;20031;-89
2023/02/07 13:41:09;;;;;;;5.33;2.03;;;4.10;99.90;;;;;;4809143;29;20035;-90
2023/02/07 13:43:53;;;;;;;6.40;1.57;;;;;;;;;;4817739;29;20114;-89
2023/02/07 13:46:28;;;;;;;5.13;1.50;;;5.60;99.90;;;;;;4821343;29;20491;-90
2023/02/07 13:49:18;;;;;;;5.20;1.83;;;4.90;99.90;;;;;;4819420;29;20062;-89
2023/02/07 13:51:54;;;;;;;;;;;;;;;;;;;;;
2023/02/07 13:54:34;;;;;;;5.27;1.10;;;4.60;98.60;;;;;;4828973;29;20034;-89
2023/02/07 14:00:30;;;;;;;4.13;1.27;;;5.00;98.10;;;;;;4818738;29;20037;-87
2023/02/07 14:03:02;;;;;;;4.03;1.10;;;5.30;97.30;;;;;;4818042;29;20039;-89
2023/02/07 14:05:40;;;;;;;4.13;1.07;;;5.00;96.40;;;;;;4836575;29;20093;-87
2023/02/07 14:08:15;;;;;;;3.67;1.10;;;4.70;95.50;;;;;;4826400;29;20031;-89
2023/02/07 14:10:46;;;;;;;3.30;1.13;;;4.60;95.30;;;;;;4836590;29;20026;-89
2023/02/07 14:13:25;;;;;;;2.87;1.13;;;6.00;95.90;;;;;;4822801;29;20445;-88
2023/02/07 14:15:59;;;;;;;4.23;0.80;;;4.80;95.30;;;;;;4825657;29;20043;-89
2023/02/07 14:18:39;;;;;;;2.07;0.80;;;4.90;94.80;;;;;;4824212;29;20030;-89
2023/02/07 14:21:20;;;;;;;1.57;0.70;;;4.70;98.80;;;;;;4821572;29;20030;-88
2023/02/07 14:24:15;;;;;;;1.77;0.73;;;5.00;96.00;;;;;;4831606;29;20094;-88
2023/02/07 14:26:59;;;;;;;4.27;0.90;;;5.00;94.00;;;;;;4822893;29;20031;-89
2023/02/07 14:29:30;;;;;;;2.00;0.80;;;5.30;92.80;;;;;;4829202;29;20058;-89
2023/02/07 14:32:29;;;;;;;2.10;0.77;;;5.30;91.10;;;;;;4820015;29;20061;-90
2023/02/07 14:35:25;;;;;;;2.73;0.73;;;5.60;94.30;;;;;;4839901;29;20514;-89
2023/02/07 14:38:12;;;;;;;;;;;;;;;;;;;;;